sensor_id;sensor_type;location;lat;lon;timestamp;pressure;altitude;pressure_sealevel;temperature;humidity
13080;BME280;6606;49.154;9.280;2023-05-27T00:01:45;100393.34;;;15.26;100.00
13080;BME280;6606;49.154;9.280;2023-05-27T00:04:27;100387.41;;;15.21;100.00
13080;BME280;6606;49.154;9.280;2023-05-27T00:07:09;100378.75;;;15.17;100.00
13080;BME280;6606;49.154;9.280;2023-05-27T00:09:50;100385.91;;;15.17;100.00
13080;BME280;6606;49.154;9.280;2023-05-27T00:12:32;100386.50;;;15.22;100.00
13080;BME280;6606;49.154;9.280;2023-05-27T00:15:14;100382.00;;;15.23;100.00
13080;BME280;6606;49.154;9.280;2023-05-27T00:17:59;100387.72;;;15.16;100.00
13080;BME280;6606;49.154;9.280;2023-05-27T00:20:42;100380.56;;;15.17;100.00
13080;BME280;6606;49.154;9.280;2023-05-27T00:23:24;100386.13;;;15.28;100.00
13080;BME280;6606;49.154;9.280;2023-05-27T00:26:06;100387.69;;;15.32;100.00
13080;BME280;6606;49.154;9.280;2023-05-27T00:28:48;100379.69;;;15.47;100.00
13080;BME280;6606;49.154;9.280;2023-05-27T00:31:29;100381.84;;;15.56;100.00
13080;BME280;6606;49.154;9.280;2023-05-27T00:34:13;100396.31;;;15.52;100.00
13080;BME280;6606;49.154;9.280;2023-05-27T00:36:54;100391.75;;;15.54;100.00
13080;BME280;6606;49.154;9.280;2023-05-27T00:39:36;100385.72;;;15.50;100.00
13080;BME280;6606;49.154;9.280;2023-05-27T00:42:19;100392.66;;;15.38;100.00
13080;BME280;6606;49.154;9.280;2023-05-27T00:45:02;100385.16;;;15.29;100.00
13080;BME280;6606;49.154;9.280;2023-05-27T00:47:44;100381.16;;;15.22;100.00
13080;BME280;6606;49.154;9.280;2023-05-27T00:50:27;100380.56;;;15.17;100.00
13080;BME280;6606;49.154;9.280;2023-05-27T00:53:09;100375.13;;;15.03;100.00
13080;BME280;6606;49.154;9.280;2023-05-27T00:55:52;100379.31;;;14.92;100.00
13080;BME280;6606;49.154;9.280;2023-05-27T00:58:35;100378.69;;;14.87;100.00
13080;BME280;6606;49.154;9.280;2023-05-27T01:01:18;100375.06;;;14.88;100.00
13080;BME280;6606;49.154;9.280;2023-05-27T01:04:00;100383.44;;;14.82;100.00
13080;BME280;6606;49.154;9.280;2023-05-27T01:07:01;100385.75;;;14.72;100.00
13080;BME280;6606;49.154;9.280;2023-05-27T01:09:51;100379.63;;;14.70;100.00
13080;BME280;6606;49.154;9.280;2023-05-27T01:12:38;100379.75;;;14.69;100.00
13080;BME280;6606;49.154;9.280;2023-05-27T01:15:23;100384.38;;;14.65;100.00
13080;BME280;6606;49.154;9.280;2023-05-27T01:18:07;100385.56;;;14.60;100.00
13080;BME280;6606;49.154;9.280;2023-05-27T01:20:51;100384.78;;;14.58;100.00
13080;BME280;6606;49.154;9.280;2023-05-27T01:23:36;100379.25;;;14.45;100.00
13080;BME280;6606;49.154;9.280;2023-05-27T01:26:19;100380.34;;;14.41;100.00
13080;BME280;6606;49.154;9.280;2023-05-27T01:29:01;100371.75;;;14.36;100.00
13080;BME280;6606;49.154;9.280;2023-05-27T01:31:48;100375.09;;;14.39;100.00
13080;BME280;6606;49.154;9.280;2023-05-27T01:34:36;100372.94;;;14.30;100.00
13080;BME280;6606;49.154;9.280;2023-05-27T01:37:21;100366.22;;;14.23;100.00
13080;BME280;6606;49.154;9.280;2023-05-27T01:40:08;100367.25;;;14.20;100.00
13080;BME280;6606;49.154;9.280;2023-05-27T01:42:50;100364.84;;;14.16;100.00
13080;BME280;6606;49.154;9.280;2023-05-27T01:45:33;100365.25;;;14.08;100.00
13080;BME280;6606;49.154;9.280;2023-05-27T01:48:16;100357.50;;;14.03;100.00
13080;BME280;6606;49.154;9.280;2023-05-27T01:50:59;100349.56;;;14.02;100.00
13080;BME280;6606;49.154;9.280;2023-05-27T01:53:41;100354.38;;;13.95;100.00
13080;BME280;6606;49.154;9.280;2023-05-27T01:56:24;100359.25;;;13.87;100.00
13080;BME280;6606;49.154;9.280;2023-05-27T01:59:08;100360.34;;;13.83;100.00
13080;BME280;6606;49.154;9.280;2023-05-27T02:01:50;100351.56;;;13.81;100.00
13080;BME280;6606;49.154;9.280;2023-05-27T02:04:34;100359.72;;;13.78;100.00
13080;BME280;6606;49.154;9.280;2023-05-27T02:07:16;100351.91;;;13.75;100.00
13080;BME280;6606;49.154;9.280;2023-05-27T02:10:02;100361.16;;;13.68;100.00
13080;BME280;6606;49.154;9.280;2023-05-27T02:12:45;100358.59;;;13.66;100.00
13080;BME280;6606;49.154;9.280;2023-05-27T02:15:28;100351.31;;;13.52;100.00
13080;BME280;6606;49.154;9.280;2023-05-27T02:18:10;100353.03;;;13.53;100.00
13080;BME280;6606;49.154;9.280;2023-05-27T02:20:53;100351.31;;;13.52;100.00
13080;BME280;6606;49.154;9.280;2023-05-27T02:23:35;100346.78;;;13.37;100.00
13080;BME280;6606;49.154;9.280;2023-05-27T02:26:17;100357.41;;;13.37;100.00
13080;BME280;6606;49.154;9.280;2023-05-27T02:29:00;100348.81;;;13.32;100.00
13080;BME280;6606;49.154;9.280;2023-05-27T02:31:42;100358.59;;;13.31;100.00
13080;BME280;6606;49.154;9.280;2023-05-27T02:34:24;100352.66;;;13.25;100.00
13080;BME280;6606;49.154;9.280;2023-05-27T02:37:06;100353.78;;;13.20;100.00
13080;BME280;6606;49.154;9.280;2023-05-27T02:39:48;100349.53;;;13.16;100.00
13080;BME280;6606;49.154;9.280;2023-05-27T02:42:29;100356.88;;;13.11;100.00
13080;BME280;6606;49.154;9.280;2023-05-27T02:45:13;100353.41;;;12.92;100.00
13080;BME280;6606;49.154;9.280;2023-05-27T02:47:55;100357.78;;;12.93;100.00
13080;BME280;6606;49.154;9.280;2023-05-27T02:50:37;100356.09;;;12.92;100.00
13080;BME280;6606;49.154;9.280;2023-05-27T02:53:18;100355.28;;;12.90;100.00
13080;BME280;6606;49.154;9.280;2023-05-27T02:56:00;100360.13;;;12.82;100.00
13080;BME280;6606;49.154;9.280;2023-05-27T02:58:43;100351.28;;;12.81;100.00
13080;BME280;6606;49.154;9.280;2023-05-27T03:01:26;100349.16;;;12.70;100.00
13080;BME280;6606;49.154;9.280;2023-05-27T03:04:07;100344.91;;;12.66;100.00
13080;BME280;6606;49.154;9.280;2023-05-27T03:06:49;100343.72;;;12.72;100.00
13080;BME280;6606;49.154;9.280;2023-05-27T03:09:31;100343.81;;;12.70;100.00
13080;BME280;6606;49.154;9.280;2023-05-27T03:12:13;100345.38;;;12.74;100.00
13080;BME280;6606;49.154;9.280;2023-05-27T03:14:54;100345.34;;;12.57;100.00
13080;BME280;6606;49.154;9.280;2023-05-27T03:17:38;100348.41;;;12.67;100.00
13080;BME280;6606;49.154;9.280;2023-05-27T03:20:20;100345.84;;;12.65;100.00
13080;BME280;6606;49.154;9.280;2023-05-27T03:23:02;100348.34;;;12.68;100.00
13080;BME280;6606;49.154;9.280;2023-05-27T03:25:44;100356.63;;;12.62;100.00
13080;BME280;6606;49.154;9.280;2023-05-27T03:28:26;100358.19;;;12.66;100.00
13080;BME280;6606;49.154;9.280;2023-05-27T03:31:09;100359.84;;;12.69;100.00
13080;BME280;6606;49.154;9.280;2023-05-27T03:34:06;100357.25;;;12.67;100.00
13080;BME280;6606;49.154;9.280;2023-05-27T03:36:48;100351.81;;;12.70;100.00
13080;BME280;6606;49.154;9.280;2023-05-27T03:39:33;100357.25;;;12.67;100.00
13080;BME280;6606;49.154;9.280;2023-05-27T03:42:14;100353.03;;;12.63;100.00
13080;BME280;6606;49.154;9.280;2023-05-27T03:44:56;100360.34;;;12.58;100.00
13080;BME280;6606;49.154;9.280;2023-05-27T03:47:41;100360.84;;;12.66;100.00
13080;BME280;6606;49.154;9.280;2023-05-27T03:50:24;100351.72;;;12.72;100.00
13080;BME280;6606;49.154;9.280;2023-05-27T03:53:05;100354.22;;;12.75;100.00
13080;BME280;6606;49.154;9.280;2023-05-27T03:55:47;100363.69;;;12.81;100.00
13080;BME280;6606;49.154;9.280;2023-05-27T03:58:29;100363.28;;;12.90;100.00
13080;BME280;6606;49.154;9.280;2023-05-27T04:01:11;100371.31;;;12.88;100.00
13080;BME280;6606;49.154;9.280;2023-05-27T04:03:52;100365.78;;;12.93;100.00
13080;BME280;6606;49.154;9.280;2023-05-27T04:06:35;100357.63;;;12.96;100.00
13080;BME280;6606;49.154;9.280;2023-05-27T04:09:17;100354.53;;;13.05;100.00
13080;BME280;6606;49.154;9.280;2023-05-27T04:11:59;100351.72;;;13.08;100.00
13080;BME280;6606;49.154;9.280;2023-05-27T04:14:40;100359.66;;;12.91;100.00
13080;BME280;6606;49.154;9.280;2023-05-27T04:17:22;100365.19;;;13.05;100.00
13080;BME280;6606;49.154;9.280;2023-05-27T04:20:05;100364.13;;;12.90;100.00
13080;BME280;6606;49.154;9.280;2023-05-27T04:22:56;100366.84;;;13.08;100.00
13080;BME280;6606;49.154;9.280;2023-05-27T04:25:38;100360.78;;;13.04;100.00
13080;BME280;6606;49.154;9.280;2023-05-27T04:28:20;100367.84;;;13.05;100.00
13080;BME280;6606;49.154;9.280;2023-05-27T04:31:02;100367.53;;;13.11;100.00
13080;BME280;6606;49.154;9.280;2023-05-27T04:34:04;100356.88;;;13.11;100.00
13080;BME280;6606;49.154;9.280;2023-05-27T04:36:46;100361.25;;;13.12;100.00
13080;BME280;6606;49.154;9.280;2023-05-27T04:39:33;100366.25;;;13.01;100.00
13080;BME280;6606;49.154;9.280;2023-05-27T04:42:15;100363.28;;;12.90;100.00
13080;BME280;6606;49.154;9.280;2023-05-27T04:45:00;100359.06;;;13.03;100.00
13080;BME280;6606;49.154;9.280;2023-05-27T04:47:42;100359.66;;;12.91;100.00
13080;BME280;6606;49.154;9.280;2023-05-27T04:50:24;100359.38;;;12.97;100.00
13080;BME280;6606;49.154;9.280;2023-05-27T04:53:06;100360.94;;;13.01;100.00
13080;BME280;6606;49.154;9.280;2023-05-27T04:55:51;100352.50;;;13.10;100.00
13080;BME280;6606;49.154;9.280;2023-05-27T04:58:33;100350.28;;;13.01;100.00
13080;BME280;6606;49.154;9.280;2023-05-27T05:01:15;100353.69;;;13.05;100.00
13080;BME280;6606;49.154;9.280;2023-05-27T05:04:07;100355.72;;;13.17;100.00
13080;BME280;6606;49.154;9.280;2023-05-27T05:06:58;100357.88;;;13.28;100.00
13080;BME280;6606;49.154;9.280;2023-05-27T05:09:41;100356.69;;;13.33;100.00
13080;BME280;6606;49.154;9.280;2023-05-27T05:12:34;100351.31;;;13.52;100.00
13080;BME280;6606;49.154;9.280;2023-05-27T05:15:16;100349.09;;;13.43;100.00
13080;BME280;6606;49.154;9.280;2023-05-27T05:17:58;100350.91;;;13.43;100.00
13080;BME280;6606;49.154;9.280;2023-05-27T05:20:41;100367.66;;;13.62;100.00
13080;BME280;6606;49.154;9.280;2023-05-27T05:23:27;100356.00;;;13.64;100.00
13080;BME280;6606;49.154;9.280;2023-05-27T05:26:09;100361.63;;;13.58;100.00
13080;BME280;6606;49.154;9.280;2023-05-27T05:28:56;100355.81;;;13.68;100.00
13080;BME280;6606;49.154;9.280;2023-05-27T05:31:38;100363.69;;;13.53;100.00
13080;BME280;6606;49.154;9.280;2023-05-27T05:34:19;100364.38;;;13.57;100.00
13080;BME280;6606;49.154;9.280;2023-05-27T05:37:01;100367.25;;;13.70;100.00
13080;BME280;6606;49.154;9.280;2023-05-27T05:39:43;100364.88;;;13.98;100.00
13080;BME280;6606;49.154;9.280;2023-05-27T05:42:25;100370.84;;;13.86;100.00
13080;BME280;6606;49.154;9.280;2023-05-27T05:45:09;100371.41;;;13.93;100.00
13080;BME280;6606;49.154;9.280;2023-05-27T05:47:52;100353.22;;;14.17;100.00
13080;BME280;6606;49.154;9.280;2023-05-27T05:50:38;100360.00;;;14.06;100.00
13080;BME280;6606;49.154;9.280;2023-05-27T05:53:20;100354.09;;;14.17;100.00
13080;BME280;6606;49.154;9.280;2023-05-27T05:56:02;100358.84;;;14.44;100.00
13080;BME280;6606;49.154;9.280;2023-05-27T05:58:44;100359.97;;;14.40;100.00
13080;BME280;6606;49.154;9.280;2023-05-27T06:01:27;100357.00;;;14.62;100.00
13080;BME280;6606;49.154;9.280;2023-05-27T06:04:09;100370.22;;;14.47;100.00
13080;BME280;6606;49.154;9.280;2023-05-27T06:06:54;100358.50;;;14.50;100.00
13080;BME280;6606;49.154;9.280;2023-05-27T06:09:54;100367.00;;;14.74;100.00
13080;BME280;6606;49.154;9.280;2023-05-27T06:12:41;100362.50;;;14.90;100.00
13080;BME280;6606;49.154;9.280;2023-05-27T06:15:23;100368.22;;;15.30;100.00
13080;BME280;6606;49.154;9.280;2023-05-27T06:18:07;100365.66;;;15.13;100.00
13080;BME280;6606;49.154;9.280;2023-05-27T06:20:49;100361.97;;;15.46;100.00
13080;BME280;6606;49.154;9.280;2023-05-27T06:23:32;100360.41;;;15.42;100.00
13080;BME280;6606;49.154;9.280;2023-05-27T06:26:26;100355.69;;;15.61;100.00
13080;BME280;6606;49.154;9.280;2023-05-27T06:29:11;100349.59;;;15.59;100.00
13080;BME280;6606;49.154;9.280;2023-05-27T06:31:53;100356.13;;;15.69;100.00
13080;BME280;6606;49.154;9.280;2023-05-27T06:34:37;100346.41;;;15.97;100.00
13080;BME280;6606;49.154;9.280;2023-05-27T06:37:20;100352.72;;;15.96;100.00
13080;BME280;6606;49.154;9.280;2023-05-27T06:40:01;100350.63;;;16.01;100.00
13080;BME280;6606;49.154;9.280;2023-05-27T06:42:43;100349.09;;;15.82;100.00
13080;BME280;6606;49.154;9.280;2023-05-27T06:45:44;100348.69;;;16.32;100.00
13080;BME280;6606;49.154;9.280;2023-05-27T06:48:39;100355.38;;;16.24;100.00
13080;BME280;6606;49.154;9.280;2023-05-27T06:51:23;100349.38;;;16.91;100.00
13080;BME280;6606;49.154;9.280;2023-05-27T06:54:07;100348.88;;;17.11;92.33
13080;BME280;6606;49.154;9.280;2023-05-27T06:56:58;100346.63;;;17.45;94.86
13080;BME280;6606;49.154;9.280;2023-05-27T07:00:10;100348.63;;;17.29;91.43
13080;BME280;6606;49.154;9.280;2023-05-27T07:03:01;100351.06;;;17.72;87.36
13080;BME280;6606;49.154;9.280;2023-05-27T07:05:43;100347.78;;;19.88;72.33
13080;BME280;6606;49.154;9.280;2023-05-27T07:08:26;100340.94;;;22.22;56.90
13080;BME280;6606;49.154;9.280;2023-05-27T07:11:22;100333.88;;;23.68;47.72
13080;BME280;6606;49.154;9.280;2023-05-27T07:14:06;100335.31;;;24.57;45.08
13080;BME280;6606;49.154;9.280;2023-05-27T07:16:49;100333.44;;;25.03;42.46
13080;BME280;6606;49.154;9.280;2023-05-27T07:19:32;100335.75;;;24.98;40.68
13080;BME280;6606;49.154;9.280;2023-05-27T07:22:18;100337.09;;;25.12;39.64
13080;BME280;6606;49.154;9.280;2023-05-27T07:25:02;100337.56;;;26.13;38.04
13080;BME280;6606;49.154;9.280;2023-05-27T07:27:49;100338.31;;;25.53;40.57
13080;BME280;6606;49.154;9.280;2023-05-27T07:30:30;100323.84;;;27.24;37.40
13080;BME280;6606;49.154;9.280;2023-05-27T07:33:15;100319.16;;;26.33;37.03
13080;BME280;6606;49.154;9.280;2023-05-27T07:35:57;100318.66;;;26.38;36.27
13080;BME280;6606;49.154;9.280;2023-05-27T07:38:39;100321.34;;;25.77;38.68
13080;BME280;6606;49.154;9.280;2023-05-27T07:41:22;100315.66;;;26.49;38.25
13080;BME280;6606;49.154;9.280;2023-05-27T07:44:06;100310.69;;;26.87;36.85
13080;BME280;6606;49.154;9.280;2023-05-27T07:46:49;100309.53;;;27.47;34.57
13080;BME280;6606;49.154;9.280;2023-05-27T07:49:31;100311.13;;;26.58;35.02
13080;BME280;6606;49.154;9.280;2023-05-27T07:52:42;100302.59;;;27.52;34.70
13080;BME280;6606;49.154;9.280;2023-05-27T07:55:35;100315.00;;;27.30;34.78
13080;BME280;6606;49.154;9.280;2023-05-27T07:58:18;100313.91;;;25.79;36.75
13080;BME280;6606;49.154;9.280;2023-05-27T08:01:08;100307.25;;;26.68;37.47
13080;BME280;6606;49.154;9.280;2023-05-27T08:03:50;100303.22;;;27.05;36.78
13080;BME280;6606;49.154;9.280;2023-05-27T08:06:46;100305.78;;;28.36;33.80
13080;BME280;6606;49.154;9.280;2023-05-27T08:10:02;100295.81;;;26.57;36.60
13080;BME280;6606;49.154;9.280;2023-05-27T08:13:00;100291.66;;;27.69;34.91
13080;BME280;6606;49.154;9.280;2023-05-27T08:15:53;100290.63;;;27.12;36.04
13080;BME280;6606;49.154;9.280;2023-05-27T08:18:56;100288.47;;;27.24;35.64
13080;BME280;6606;49.154;9.280;2023-05-27T08:21:47;100291.13;;;25.72;36.96
13080;BME280;6606;49.154;9.280;2023-05-27T08:25:05;100285.84;;;26.82;37.15
13080;BME280;6606;49.154;9.280;2023-05-27T08:27:57;100286.91;;;26.97;35.60
13080;BME280;6606;49.154;9.280;2023-05-27T08:31:06;100281.81;;;27.84;34.81
13080;BME280;6606;49.154;9.280;2023-05-27T08:33:57;100279.94;;;28.24;33.39
13080;BME280;6606;49.154;9.280;2023-05-27T08:36:48;100268.56;;;27.32;35.67
13080;BME280;6606;49.154;9.280;2023-05-27T08:39:30;100260.91;;;27.27;36.13
13080;BME280;6606;49.154;9.280;2023-05-27T08:42:22;100263.03;;;27.81;34.80
13080;BME280;6606;49.154;9.280;2023-05-27T08:45:08;100263.44;;;27.45;34.87
13080;BME280;6606;49.154;9.280;2023-05-27T08:47:51;100271.03;;;26.68;36.80
13080;BME280;6606;49.154;9.280;2023-05-27T08:50:37;100260.97;;;24.04;43.30
13080;BME280;6606;49.154;9.280;2023-05-27T08:53:19;100258.03;;;23.88;45.70
13080;BME280;6606;49.154;9.280;2023-05-27T08:56:02;100259.03;;;22.81;51.74
13080;BME280;6606;49.154;9.280;2023-05-27T08:58:47;100254.69;;;22.40;50.74
13080;BME280;6606;49.154;9.280;2023-05-27T09:01:29;100266.50;;;22.08;54.04
13080;BME280;6606;49.154;9.280;2023-05-27T09:04:13;100260.09;;;21.69;56.94
13080;BME280;6606;49.154;9.280;2023-05-27T09:06:55;100258.47;;;22.18;52.53
13080;BME280;6606;49.154;9.280;2023-05-27T09:09:36;100254.81;;;22.38;56.05
13080;BME280;6606;49.154;9.280;2023-05-27T09:12:22;100241.09;;;22.11;54.94
13080;BME280;6606;49.154;9.280;2023-05-27T09:15:05;100255.41;;;22.02;54.85
13080;BME280;6606;49.154;9.280;2023-05-27T09:17:46;100230.94;;;22.44;57.11
13080;BME280;6606;49.154;9.280;2023-05-27T09:20:29;100246.06;;;22.85;56.05
13080;BME280;6606;49.154;9.280;2023-05-27T09:23:11;100243.44;;;22.35;51.51
13080;BME280;6606;49.154;9.280;2023-05-27T09:25:53;100235.09;;;22.48;57.25
13080;BME280;6606;49.154;9.280;2023-05-27T09:28:36;100239.25;;;22.71;54.80
13080;BME280;6606;49.154;9.280;2023-05-27T09:31:20;100231.28;;;22.99;51.61
13080;BME280;6606;49.154;9.280;2023-05-27T09:34:10;100235.84;;;23.08;52.90
13080;BME280;6606;49.154;9.280;2023-05-27T09:36:53;100235.25;;;22.75;54.29
13080;BME280;6606;49.154;9.280;2023-05-27T09:39:35;100222.16;;;22.61;53.96
13080;BME280;6606;49.154;9.280;2023-05-27T09:42:17;100224.44;;;22.95;57.38
13080;BME280;6606;49.154;9.280;2023-05-27T09:45:02;100228.25;;;23.31;51.65
13080;BME280;6606;49.154;9.280;2023-05-27T09:47:48;100226.84;;;23.37;53.02
13080;BME280;6606;49.154;9.280;2023-05-27T09:50:33;100220.88;;;23.70;52.27
13080;BME280;6606;49.154;9.280;2023-05-27T09:53:19;100218.03;;;23.82;51.32
13080;BME280;6606;49.154;9.280;2023-05-27T09:56:03;100211.41;;;23.94;50.62
13080;BME280;6606;49.154;9.280;2023-05-27T09:58:45;100213.97;;;23.96;51.76
13080;BME280;6606;49.154;9.280;2023-05-27T10:01:28;100204.09;;;23.67;51.90
13080;BME280;6606;49.154;9.280;2023-05-27T10:04:10;100205.13;;;23.94;55.29
13080;BME280;6606;49.154;9.280;2023-05-27T10:06:53;100202.97;;;23.97;47.76
13080;BME280;6606;49.154;9.280;2023-05-27T10:09:36;100212.25;;;23.95;50.48
13080;BME280;6606;49.154;9.280;2023-05-27T10:12:18;100198.47;;;23.51;52.22
13080;BME280;6606;49.154;9.280;2023-05-27T10:15:01;100194.69;;;23.71;49.60
13080;BME280;6606;49.154;9.280;2023-05-27T10:17:46;100201.72;;;24.37;48.46
13080;BME280;6606;49.154;9.280;2023-05-27T10:20:31;100202.81;;;24.26;48.60
13080;BME280;6606;49.154;9.280;2023-05-27T10:23:14;100191.56;;;24.21;49.70
13080;BME280;6606;49.154;9.280;2023-05-27T10:26:04;100200.00;;;24.18;49.55
13080;BME280;6606;49.154;9.280;2023-05-27T10:28:46;100188.72;;;24.23;50.61
13080;BME280;6606;49.154;9.280;2023-05-27T10:31:29;100193.25;;;24.32;47.08
13080;BME280;6606;49.154;9.280;2023-05-27T10:34:11;100183.63;;;24.20;56.72
13080;BME280;6606;49.154;9.280;2023-05-27T10:36:58;100184.03;;;24.96;50.42
13080;BME280;6606;49.154;9.280;2023-05-27T10:39:40;100179.06;;;24.92;43.10
13080;BME280;6606;49.154;9.280;2023-05-27T10:42:23;100183.38;;;25.02;47.02
13080;BME280;6606;49.154;9.280;2023-05-27T10:45:06;100175.25;;;25.02;44.49
13080;BME280;6606;49.154;9.280;2023-05-27T10:47:48;100181.13;;;24.72;48.80
13080;BME280;6606;49.154;9.280;2023-05-27T10:50:31;100177.47;;;24.81;44.67
13080;BME280;6606;49.154;9.280;2023-05-27T10:53:14;100161.31;;;24.97;43.76
13080;BME280;6606;49.154;9.280;2023-05-27T10:55:59;100167.06;;;24.94;44.84
13080;BME280;6606;49.154;9.280;2023-05-27T10:58:43;100154.91;;;24.81;41.76
13080;BME280;6606;49.154;9.280;2023-05-27T11:01:28;100157.56;;;24.54;40.36
13080;BME280;6606;49.154;9.280;2023-05-27T11:04:10;100148.97;;;24.77;41.37
13080;BME280;6606;49.154;9.280;2023-05-27T11:06:58;100148.03;;;25.12;41.62
13080;BME280;6606;49.154;9.280;2023-05-27T11:09:44;100160.75;;;25.12;40.97
13080;BME280;6606;49.154;9.280;2023-05-27T11:12:26;100155.44;;;24.84;38.95
13080;BME280;6606;49.154;9.280;2023-05-27T11:15:09;100150.50;;;25.06;39.58
13080;BME280;6606;49.154;9.280;2023-05-27T11:17:52;100147.41;;;25.00;39.12
13080;BME280;6606;49.154;9.280;2023-05-27T11:20:35;100135.25;;;25.05;41.41
13080;BME280;6606;49.154;9.280;2023-05-27T11:23:16;100131.59;;;25.40;39.50
13080;BME280;6606;49.154;9.280;2023-05-27T11:25:58;100131.03;;;26.05;40.82
13080;BME280;6606;49.154;9.280;2023-05-27T11:28:51;100139.34;;;25.35;42.03
13080;BME280;6606;49.154;9.280;2023-05-27T11:31:34;100123.44;;;25.14;40.21
13080;BME280;6606;49.154;9.280;2023-05-27T11:34:20;100121.47;;;24.98;42.29
13080;BME280;6606;49.154;9.280;2023-05-27T11:37:03;100128.94;;;24.96;40.42
13080;BME280;6606;49.154;9.280;2023-05-27T11:39:52;100118.28;;;25.55;42.46
13080;BME280;6606;49.154;9.280;2023-05-27T11:42:34;100125.09;;;25.25;38.81
13080;BME280;6606;49.154;9.280;2023-05-27T11:45:16;100112.72;;;25.30;39.16
13080;BME280;6606;49.154;9.280;2023-05-27T11:47:59;100106.88;;;24.91;39.20
13080;BME280;6606;49.154;9.280;2023-05-27T11:50:42;100104.91;;;25.01;38.59
13080;BME280;6606;49.154;9.280;2023-05-27T11:53:26;100114.19;;;24.98;39.93
13080;BME280;6606;49.154;9.280;2023-05-27T11:56:09;100109.47;;;25.61;37.37
13080;BME280;6606;49.154;9.280;2023-05-27T11:58:50;100102.88;;;25.29;38.55
13080;BME280;6606;49.154;9.280;2023-05-27T12:01:32;100097.41;;;25.21;39.67
13080;BME280;6606;49.154;9.280;2023-05-27T12:04:15;100098.94;;;25.58;37.91
13080;BME280;6606;49.154;9.280;2023-05-27T12:06:57;100080.44;;;26.12;37.53
13080;BME280;6606;49.154;9.280;2023-05-27T12:09:40;100075.38;;;25.75;37.20
13080;BME280;6606;49.154;9.280;2023-05-27T12:12:22;100084.16;;;25.52;37.72
13080;BME280;6606;49.154;9.280;2023-05-27T12:15:04;100082.94;;;25.47;38.92
13080;BME280;6606;49.154;9.280;2023-05-27T12:17:48;100068.00;;;25.42;38.92
13080;BME280;6606;49.154;9.280;2023-05-27T12:20:31;100061.56;;;25.43;37.06
13080;BME280;6606;49.154;9.280;2023-05-27T12:23:12;100060.25;;;25.64;37.06
13080;BME280;6606;49.154;9.280;2023-05-27T12:25:54;100049.19;;;26.00;36.60
13080;BME280;6606;49.154;9.280;2023-05-27T12:28:36;100046.16;;;26.44;36.26
13080;BME280;6606;49.154;9.280;2023-05-27T12:31:18;100045.78;;;26.14;36.78
13080;BME280;6606;49.154;9.280;2023-05-27T12:33:59;100062.34;;;25.78;34.71
13080;BME280;6606;49.154;9.280;2023-05-27T12:36:42;100049.47;;;25.80;33.91
13080;BME280;6606;49.154;9.280;2023-05-27T12:39:24;100035.31;;;25.69;37.39
13080;BME280;6606;49.154;9.280;2023-05-27T12:42:06;100037.47;;;25.91;34.77
13080;BME280;6606;49.154;9.280;2023-05-27T12:44:48;100028.84;;;25.61;36.77
13080;BME280;6606;49.154;9.280;2023-05-27T12:47:30;100034.91;;;25.98;35.55
13080;BME280;6606;49.154;9.280;2023-05-27T12:50:11;100030.75;;;25.69;34.93
13080;BME280;6606;49.154;9.280;2023-05-27T12:52:54;100026.44;;;26.17;34.99
13080;BME280;6606;49.154;9.280;2023-05-27T12:55:36;100018.91;;;25.78;36.25
13080;BME280;6606;49.154;9.280;2023-05-27T12:58:19;100022.91;;;25.58;33.43
13080;BME280;6606;49.154;9.280;2023-05-27T13:01:00;100019.63;;;26.29;33.20
13080;BME280;6606;49.154;9.280;2023-05-27T13:03:43;100019.63;;;26.21;31.40
13080;BME280;6606;49.154;9.280;2023-05-27T13:06:24;100012.16;;;26.23;30.75
13080;BME280;6606;49.154;9.280;2023-05-27T13:09:08;100014.44;;;25.69;33.55
13080;BME280;6606;49.154;9.280;2023-05-27T13:11:52;100010.81;;;26.03;32.84
13080;BME280;6606;49.154;9.280;2023-05-27T13:14:34;100004.84;;;26.57;31.16
13080;BME280;6606;49.154;9.280;2023-05-27T13:17:16;100004.00;;;26.48;31.12
13080;BME280;6606;49.154;9.280;2023-05-27T13:19:57;99997.53;;;26.41;30.39
13080;BME280;6606;49.154;9.280;2023-05-27T13:22:39;99999.25;;;26.01;30.21
13080;BME280;6606;49.154;9.280;2023-05-27T13:25:23;99995.69;;;26.33;29.70
13080;BME280;6606;49.154;9.280;2023-05-27T13:28:04;99992.44;;;26.70;28.57
13080;BME280;6606;49.154;9.280;2023-05-27T13:30:46;99992.38;;;26.87;28.11
13080;BME280;6606;49.154;9.280;2023-05-27T13:33:27;99980.63;;;26.94;28.42
13080;BME280;6606;49.154;9.280;2023-05-27T13:36:09;99979.03;;;27.08;28.92
13080;BME280;6606;49.154;9.280;2023-05-27T13:38:51;99983.44;;;26.37;28.08
13080;BME280;6606;49.154;9.280;2023-05-27T13:41:34;99984.47;;;26.36;29.11
13080;BME280;6606;49.154;9.280;2023-05-27T13:44:16;99967.97;;;26.54;27.71
13080;BME280;6606;49.154;9.280;2023-05-27T13:46:57;99978.53;;;26.00;29.48
13080;BME280;6606;49.154;9.280;2023-05-27T13:49:39;99968.66;;;26.48;30.92
13080;BME280;6606;49.154;9.280;2023-05-27T13:52:21;99962.72;;;26.61;27.87
13080;BME280;6606;49.154;9.280;2023-05-27T13:55:03;99959.53;;;26.88;28.39
13080;BME280;6606;49.154;9.280;2023-05-27T13:57:46;99951.34;;;26.32;28.29
13080;BME280;6606;49.154;9.280;2023-05-27T14:00:27;99954.69;;;26.51;27.94
13080;BME280;6606;49.154;9.280;2023-05-27T14:03:10;99946.91;;;26.40;29.17
13080;BME280;6606;49.154;9.280;2023-05-27T14:05:52;99944.13;;;26.72;30.44
13080;BME280;6606;49.154;9.280;2023-05-27T14:08:34;99948.88;;;26.87;29.33
13080;BME280;6606;49.154;9.280;2023-05-27T14:11:15;99946.03;;;26.64;28.21
13080;BME280;6606;49.154;9.280;2023-05-27T14:13:58;99936.00;;;26.64;31.56
13080;BME280;6606;49.154;9.280;2023-05-27T14:16:40;99941.09;;;26.67;30.23
13080;BME280;6606;49.154;9.280;2023-05-27T14:19:22;99937.97;;;26.87;29.08
13080;BME280;6606;49.154;9.280;2023-05-27T14:22:04;99926.38;;;26.93;28.60
13080;BME280;6606;49.154;9.280;2023-05-27T14:24:45;99928.22;;;27.01;28.04